createdAt,value
2023-04-06T00:00:06.103Z,101616.94
2023-04-06T00:02:33.505Z,101611.34
2023-04-06T00:05:00.760Z,101605.56
2023-04-06T00:07:29.401Z,101606.00
2023-04-06T00:09:58.786Z,101597.16
2023-04-06T00:12:25.887Z,101599.75
2023-04-06T00:14:52.880Z,101588.81
2023-04-06T00:17:22.485Z,101594.84
2023-04-06T00:19:49.584Z,101589.56
2023-04-06T00:22:16.850Z,101590.75
2023-04-06T00:24:43.938Z,101595.59
2023-04-06T00:27:11.208Z,101591.59
2023-04-06T00:29:40.777Z,101588.81
2023-04-06T00:32:08.023Z,101586.03
2023-04-06T00:34:38.746Z,101592.25
2023-04-06T00:37:06.000Z,101590.41
2023-04-06T00:39:33.004Z,101584.72
2023-04-06T00:42:01.322Z,101592.97
2023-04-06T00:44:33.231Z,101586.84
2023-04-06T00:47:00.365Z,101583.75
2023-04-06T00:49:27.921Z,101584.09
2023-04-06T00:51:55.625Z,101579.25
2023-04-06T00:54:25.009Z,101584.06
2023-04-06T00:56:56.298Z,101577.41
2023-04-06T00:59:30.707Z,101581.41
2023-04-06T01:02:00.750Z,101574.75
2023-04-06T01:04:28.552Z,101572.44
2023-04-06T01:06:55.546Z,101569.88
2023-04-06T01:09:23.739Z,101572.88
2023-04-06T01:11:50.932Z,101570.69
2023-04-06T01:14:18.198Z,101576.75
2023-04-06T01:16:45.658Z,101576.78
2023-04-06T01:19:15.873Z,101570.09
2023-04-06T01:21:43.441Z,101566.81
2023-04-06T01:24:10.886Z,101566.56
2023-04-06T01:26:39.458Z,101567.53
2023-04-06T01:29:06.547Z,101566.97
2023-04-06T01:31:33.877Z,101562.69
2023-04-06T01:34:01.829Z,101566.16
2023-04-06T01:36:28.982Z,101566.94
2023-04-06T01:38:58.495Z,101564.59
2023-04-06T01:41:28.010Z,101572.94
2023-04-06T01:43:57.414Z,101564.19
2023-04-06T01:46:24.442Z,101566.16
2023-04-06T01:48:52.093Z,101571.34
2023-04-06T01:51:25.453Z,101570.13
2023-04-06T01:53:54.972Z,101563.72
2023-04-06T01:56:22.338Z,101564.50
2023-04-06T01:58:49.391Z,101562.56
2023-04-06T02:01:16.983Z,101566.78
2023-04-06T02:03:44.055Z,101569.28
2023-04-06T02:06:11.101Z,101566.03
2023-04-06T02:08:38.262Z,101566.13
2023-04-06T02:11:07.640Z,101566.59
2023-04-06T02:13:34.951Z,101554.53
2023-04-06T02:16:04.335Z,101556.16
2023-04-06T02:18:32.590Z,101554.16
2023-04-06T02:21:02.423Z,101555.03
2023-04-06T02:23:34.327Z,101557.03
2023-04-06T02:26:03.736Z,101552.25
2023-04-06T02:28:30.994Z,101551.41
2023-04-06T02:30:58.597Z,101550.34
2023-04-06T02:33:25.588Z,101553.28
2023-04-06T02:35:52.988Z,101557.97
2023-04-06T02:38:20.067Z,101543.06
2023-04-06T02:40:47.201Z,101550.16
2023-04-06T02:43:18.815Z,101557.81
2023-04-06T02:45:48.678Z,101547.63
2023-04-06T02:48:15.802Z,101544.78
2023-04-06T02:50:42.920Z,101550.16
2023-04-06T02:53:12.400Z,101548.25
2023-04-06T02:55:39.892Z,101550.91
2023-04-06T02:58:10.121Z,101549.19
2023-04-06T03:00:38.253Z,101546.34
2023-04-06T03:03:05.629Z,101553.97
2023-04-06T03:05:32.884Z,101549.97
2023-04-06T03:07:59.754Z,101548.03
2023-04-06T03:10:27.020Z,101542.19
2023-04-06T03:12:56.151Z,101548.03
2023-04-06T03:15:26.289Z,101545.44
2023-04-06T03:17:56.769Z,101540.38
2023-04-06T03:20:25.357Z,101538.69
2023-04-06T03:22:52.455Z,101539.66
2023-04-06T03:25:19.426Z,101545.00
2023-04-06T03:27:51.506Z,101540.50
2023-04-06T03:30:21.278Z,101539.06
2023-04-06T03:32:48.914Z,101531.34
2023-04-06T03:35:16.435Z,101532.00
2023-04-06T03:37:46.282Z,101534.28
2023-04-06T03:40:13.281Z,101540.22
2023-04-06T03:42:40.467Z,101545.09
2023-04-06T03:45:10.821Z,101544.59
2023-04-06T03:47:38.244Z,101546.91
2023-04-06T03:50:06.025Z,101542.13
2023-04-06T03:52:33.151Z,101542.69
2023-04-06T03:55:00.327Z,101548.81
2023-04-06T03:57:34.346Z,101557.94
2023-04-06T04:00:01.339Z,101550.81
2023-04-06T04:02:30.897Z,101553.53
2023-04-06T04:05:01.033Z,101554.69
2023-04-06T04:07:28.069Z,101551.81
2023-04-06T04:09:55.163Z,101551.75
2023-04-06T04:12:22.292Z,101555.53
2023-04-06T04:14:49.450Z,101548.06
2023-04-06T04:17:16.636Z,101558.34
2023-04-06T04:19:46.244Z,101557.84
2023-04-06T04:22:13.221Z,101554.63
2023-04-06T04:24:40.237Z,101554.47
2023-04-06T04:27:10.339Z,101565.16
2023-04-06T04:29:39.795Z,101555.38
2023-04-06T04:32:06.863Z,101556.00
2023-04-06T04:34:34.103Z,101551.81
2023-04-06T04:37:05.986Z,101560.78
2023-04-06T04:39:33.500Z,101561.59
2023-04-06T04:42:00.685Z,101557.47
2023-04-06T04:44:27.544Z,101550.53
2023-04-06T04:46:57.887Z,101552.06
2023-04-06T04:49:24.858Z,101556.22
2023-04-06T04:51:54.974Z,101556.13
2023-04-06T04:54:22.070Z,101566.63
2023-04-06T04:56:49.078Z,101559.06
2023-04-06T04:59:18.229Z,101564.59
2023-04-06T05:01:54.727Z,101562.81
2023-04-06T05:04:24.552Z,101561.16
2023-04-06T05:06:51.854Z,101567.72
2023-04-06T05:09:21.582Z,101561.69
2023-04-06T05:11:48.719Z,101563.44
2023-04-06T05:14:16.712Z,101568.16
2023-04-06T05:16:43.848Z,101559.81
2023-04-06T05:19:13.346Z,101558.41
2023-04-06T05:21:42.631Z,101566.16
2023-04-06T05:24:09.836Z,101568.84
2023-04-06T05:26:36.891Z,101571.63
2023-04-06T05:29:08.993Z,101565.59
2023-04-06T05:31:36.283Z,101566.50
2023-04-06T05:34:05.242Z,101565.88
2023-04-06T05:36:33.158Z,101583.16
2023-04-06T05:39:00.390Z,101572.88
2023-04-06T05:41:27.481Z,101569.00
2023-04-06T05:43:57.590Z,101570.16
2023-04-06T05:46:27.050Z,101574.22
2023-04-06T05:48:56.430Z,101578.03
2023-04-06T05:51:26.026Z,101579.00
2023-04-06T05:53:53.013Z,101571.38
2023-04-06T05:56:20.027Z,101572.03
2023-04-06T05:58:47.408Z,101572.88
2023-04-06T06:01:14.506Z,101572.66
2023-04-06T06:03:43.945Z,101565.34
2023-04-06T06:06:11.091Z,101565.31
2023-04-06T06:08:38.357Z,101562.53
2023-04-06T06:11:05.288Z,101568.78
2023-04-06T06:13:37.839Z,101567.66
2023-04-06T06:16:07.604Z,101563.03
2023-04-06T06:18:34.632Z,101565.84
2023-04-06T06:21:05.021Z,101564.78
2023-04-06T06:23:34.219Z,101565.94
2023-04-06T06:26:02.074Z,101570.88
2023-04-06T06:28:31.628Z,101564.06
2023-04-06T06:30:59.570Z,101569.56
2023-04-06T06:33:29.082Z,101567.19
2023-04-06T06:35:58.424Z,101569.31
2023-04-06T06:38:25.650Z,101566.78
2023-04-06T06:40:58.112Z,101564.63
2023-04-06T06:43:25.106Z,101560.97
2023-04-06T06:45:52.040Z,101566.81
2023-04-06T06:48:18.997Z,101568.53
2023-04-06T06:50:49.234Z,101571.16
2023-04-06T06:53:19.046Z,101574.41
2023-04-06T06:55:46.162Z,101568.19
2023-04-06T06:58:13.432Z,101574.06
2023-04-06T07:00:40.620Z,101564.81
2023-04-06T07:03:10.278Z,101564.22
2023-04-06T07:05:38.860Z,101566.53
2023-04-06T07:08:08.088Z,101565.59
2023-04-06T07:10:35.322Z,101564.72
2023-04-06T07:13:04.565Z,101561.13
2023-04-06T07:15:34.041Z,101564.44
2023-04-06T07:18:03.644Z,101562.78
2023-04-06T07:20:30.801Z,101560.28
2023-04-06T07:23:04.968Z,101565.06
2023-04-06T07:25:32.084Z,101561.13
2023-04-06T07:27:59.094Z,101565.31
2023-04-06T07:30:31.549Z,101559.50
2023-04-06T07:33:01.685Z,101554.25
2023-04-06T07:35:31.274Z,101558.19
2023-04-06T07:37:58.841Z,101549.31
2023-04-06T07:40:27.134Z,101548.31
2023-04-06T07:42:57.955Z,101557.63
2023-04-06T07:45:27.823Z,101552.72
2023-04-06T07:47:57.445Z,101556.91
2023-04-06T07:50:27.620Z,101556.75
2023-04-06T07:52:58.771Z,101552.41
2023-04-06T07:55:25.843Z,101553.94
2023-04-06T07:57:55.435Z,101553.09
2023-04-06T08:00:23.096Z,101555.66
2023-04-06T08:02:50.285Z,101552.00
2023-04-06T08:05:20.483Z,101545.91
2023-04-06T08:07:47.611Z,101544.59
2023-04-06T08:10:14.756Z,101549.63
2023-04-06T08:12:41.962Z,101554.47
2023-04-06T08:15:09.421Z,101557.44
2023-04-06T08:17:36.591Z,101553.75
2023-04-06T08:20:04.840Z,101546.88
2023-04-06T08:22:31.961Z,101547.91
2023-04-06T08:25:01.541Z,101539.56
2023-04-06T08:27:28.562Z,101535.44
2023-04-06T08:29:58.120Z,101543.28
2023-04-06T08:32:26.701Z,101539.53
2023-04-06T08:34:59.280Z,101537.09
2023-04-06T08:37:26.363Z,101540.84
2023-04-06T08:39:55.828Z,101541.34
2023-04-06T08:42:27.328Z,101542.59
2023-04-06T08:44:55.975Z,101530.25
2023-04-06T08:47:24.852Z,101535.44
2023-04-06T08:49:56.375Z,101535.84
2023-04-06T08:52:30.824Z,101525.97
2023-04-06T08:55:00.857Z,101525.94
2023-04-06T08:57:28.338Z,101528.56
2023-04-06T09:00:00.685Z,101526.97
2023-04-06T09:02:28.511Z,101527.19
2023-04-06T09:04:56.008Z,101535.38
2023-04-06T09:07:23.401Z,101526.91
2023-04-06T09:09:52.816Z,101520.94
2023-04-06T09:12:27.528Z,101529.63
2023-04-06T09:14:55.391Z,101528.88
2023-04-06T09:17:33.782Z,101520.50
2023-04-06T09:20:02.648Z,101529.31
2023-04-06T09:22:40.964Z,101524.69
2023-04-06T09:25:09.763Z,101514.31
2023-04-06T09:27:39.239Z,101535.16
2023-04-06T09:30:16.941Z,101531.22
2023-04-06T09:32:52.043Z,101521.69
2023-04-06T09:35:23.214Z,101506.69
2023-04-06T09:37:52.836Z,101512.00
2023-04-06T09:40:23.387Z,101507.94
2023-04-06T09:42:54.666Z,101513.72
2023-04-06T09:45:22.363Z,101507.59
2023-04-06T09:47:52.398Z,101501.38
2023-04-06T09:50:21.505Z,101507.13
2023-04-06T09:52:55.153Z,101502.53
2023-04-06T09:55:32.163Z,101491.50
2023-04-06T09:58:09.750Z,101498.44
2023-04-06T10:00:51.145Z,101498.06
2023-04-06T10:03:32.567Z,101498.50
2023-04-06T10:06:06.946Z,101497.41
2023-04-06T10:08:35.794Z,101497.28
2023-04-06T10:11:03.915Z,101506.72
2023-04-06T10:13:33.769Z,101486.69
2023-04-06T10:16:05.191Z,101496.16
2023-04-06T10:18:32.463Z,101490.25
2023-04-06T10:21:21.874Z,101493.78
2023-04-06T10:23:55.568Z,101480.59
2023-04-06T10:26:26.113Z,101489.81
2023-04-06T10:29:02.728Z,101483.09
2023-04-06T10:31:32.470Z,101494.69
2023-04-06T10:34:04.064Z,101485.13
2023-04-06T10:36:35.970Z,101481.09
2023-04-06T10:39:07.316Z,101480.00
2023-04-06T10:41:43.344Z,101482.97
2023-04-06T10:44:22.847Z,101478.16
2023-04-06T10:47:03.858Z,101484.09
2023-04-06T10:49:31.129Z,101489.03
2023-04-06T10:51:58.735Z,101472.72
2023-04-06T10:54:28.136Z,101471.63
2023-04-06T10:56:57.806Z,101470.13
2023-04-06T10:59:26.352Z,101470.19
2023-04-06T11:01:54.203Z,101461.38
2023-04-06T11:04:22.098Z,101468.81
2023-04-06T11:06:52.847Z,101454.13
2023-04-06T11:09:30.824Z,101451.53
2023-04-06T11:11:58.329Z,101461.75
2023-04-06T11:14:27.646Z,101461.91
2023-04-06T11:16:57.680Z,101460.81
2023-04-06T11:19:28.026Z,101446.81
2023-04-06T11:21:54.977Z,101453.13
2023-04-06T11:24:26.450Z,101452.91
2023-04-06T11:27:01.503Z,101440.47
2023-04-06T11:29:39.353Z,101456.06
2023-04-06T11:32:10.049Z,101445.03
2023-04-06T11:34:40.461Z,101460.19
2023-04-06T11:37:13.475Z,101437.31
2023-04-06T11:39:58.233Z,101441.19
2023-04-06T11:42:27.601Z,101436.91
2023-04-06T11:45:02.157Z,101436.16
2023-04-06T11:47:34.234Z,101444.63
2023-04-06T11:50:15.726Z,101430.25
2023-04-06T11:52:45.509Z,101441.63
2023-04-06T11:55:20.558Z,101429.91
2023-04-06T11:57:50.893Z,101428.59
2023-04-06T12:00:19.113Z,101443.03
2023-04-06T12:02:50.664Z,101416.91
2023-04-06T12:05:20.244Z,101426.91
2023-04-06T12:07:47.319Z,101431.50
2023-04-06T12:10:16.760Z,101433.69
2023-04-06T12:12:46.347Z,101418.31
2023-04-06T12:15:13.514Z,101418.66
2023-04-06T12:17:43.121Z,101414.88
2023-04-06T12:20:24.632Z,101419.72
2023-04-06T12:22:55.455Z,101407.34
2023-04-06T12:25:24.852Z,101414.75
2023-04-06T12:27:52.004Z,101417.69
2023-04-06T12:30:19.378Z,101412.06
2023-04-06T12:32:48.892Z,101409.81
2023-04-06T12:35:17.707Z,101420.44
2023-04-06T12:37:47.011Z,101428.34
2023-04-06T12:40:15.843Z,101423.53
2023-04-06T12:42:43.017Z,101410.50
2023-04-06T12:45:13.280Z,101414.78
2023-04-06T12:47:45.422Z,101402.22
2023-04-06T12:50:15.125Z,101404.56
2023-04-06T12:52:42.125Z,101404.88
2023-04-06T12:55:09.855Z,101395.78
2023-04-06T12:57:38.237Z,101388.28
2023-04-06T13:00:09.468Z,101384.91
2023-04-06T13:02:36.814Z,101397.59
2023-04-06T13:05:04.201Z,101391.97
2023-04-06T13:07:33.753Z,101403.53
2023-04-06T13:10:01.036Z,101385.59
2023-04-06T13:12:28.133Z,101384.09
2023-04-06T13:14:55.839Z,101378.19
2023-04-06T13:17:27.766Z,101389.47
2023-04-06T13:19:54.954Z,101389.81
2023-04-06T13:22:24.324Z,101381.41
2023-04-06T13:24:54.447Z,101378.81
2023-04-06T13:27:23.840Z,101368.31
2023-04-06T13:29:53.359Z,101373.22
2023-04-06T13:32:22.977Z,101372.75
2023-04-06T13:34:54.193Z,101367.69
2023-04-06T13:37:21.674Z,101362.22
2023-04-06T13:39:49.001Z,101362.88
2023-04-06T13:42:16.151Z,101367.91
2023-04-06T13:44:48.854Z,101357.09
2023-04-06T13:47:16.971Z,101347.38
2023-04-06T13:49:44.159Z,101346.94
2023-04-06T13:52:11.569Z,101350.53
2023-04-06T13:54:38.969Z,101347.78
2023-04-06T13:57:08.782Z,101332.50
2023-04-06T13:59:41.666Z,101341.19
2023-04-06T14:02:11.402Z,101344.66
2023-04-06T14:04:39.056Z,101347.72
2023-04-06T14:07:09.793Z,101346.03
2023-04-06T14:09:39.107Z,101338.63
2023-04-06T14:12:06.442Z,101345.69
2023-04-06T14:14:33.636Z,101343.69
2023-04-06T14:17:03.972Z,101348.59
2023-04-06T14:19:31.056Z,101352.63
2023-04-06T14:22:01.113Z,101344.25
2023-04-06T14:24:28.247Z,101346.41
2023-04-06T14:26:55.468Z,101343.41
2023-04-06T14:29:22.532Z,101320.97
2023-04-06T14:31:49.890Z,101337.09
2023-04-06T14:34:17.944Z,101325.41
2023-04-06T14:36:45.001Z,101313.84
2023-04-06T14:39:12.153Z,101327.97
2023-04-06T14:41:39.233Z,101326.22
2023-04-06T14:44:13.098Z,101327.94
2023-04-06T14:46:43.402Z,101318.97
2023-04-06T14:49:10.700Z,101319.06
2023-04-06T14:51:37.936Z,101318.44
2023-04-06T14:54:05.104Z,101324.50
2023-04-06T14:56:34.959Z,101326.03
2023-04-06T14:59:04.921Z,101315.88
2023-04-06T15:01:38.730Z,101317.75
2023-04-06T15:04:09.658Z,101312.28
2023-04-06T15:06:39.189Z,101308.28
2023-04-06T15:09:06.397Z,101300.44
2023-04-06T15:11:33.498Z,101307.59
2023-04-06T15:14:04.203Z,101314.47
2023-04-06T15:16:36.359Z,101307.34
2023-04-06T15:19:03.951Z,101311.09
2023-04-06T15:21:32.180Z,101309.78
2023-04-06T15:23:59.404Z,101308.75
2023-04-06T15:26:27.505Z,101312.50
2023-04-06T15:28:57.019Z,101300.88
2023-04-06T15:31:36.932Z,101309.84
2023-04-06T15:34:11.333Z,101304.31
2023-04-06T15:36:38.495Z,101303.13
2023-04-06T15:39:09.789Z,101302.47
2023-04-06T15:41:38.611Z,101319.25
2023-04-06T15:44:07.881Z,101300.31
2023-04-06T15:46:34.886Z,101306.84
2023-04-06T15:49:01.988Z,101293.03
2023-04-06T15:51:30.262Z,101297.88
2023-04-06T15:53:58.672Z,101298.63
2023-04-06T15:56:28.033Z,101291.59
2023-04-06T15:58:55.270Z,101305.91
2023-04-06T16:01:22.478Z,101303.78
2023-04-06T16:03:52.624Z,101295.84
2023-04-06T16:06:19.664Z,101297.81
2023-04-06T16:08:46.856Z,101301.53
2023-04-06T16:11:16.463Z,101292.41
2023-04-06T16:13:47.293Z,101299.88
2023-04-06T16:16:20.878Z,101301.03
2023-04-06T16:18:52.565Z,101304.13
2023-04-06T16:21:20.062Z,101300.38
2023-04-06T16:23:51.800Z,101306.31
2023-04-06T16:26:19.090Z,101306.69
2023-04-06T16:28:48.362Z,101303.00
2023-04-06T16:31:23.934Z,101307.75
2023-04-06T16:33:54.459Z,101304.06
2023-04-06T16:36:28.694Z,101302.50
2023-04-06T16:39:02.437Z,101300.19
2023-04-06T16:41:29.613Z,101303.44
2023-04-06T16:44:01.258Z,101305.84
2023-04-06T16:46:38.553Z,101303.09
2023-04-06T16:49:07.105Z,101316.22
2023-04-06T16:51:34.977Z,101305.50
2023-04-06T16:54:02.949Z,101303.47
2023-04-06T16:56:30.188Z,101299.38
2023-04-06T16:58:57.203Z,101298.34
2023-04-06T17:01:28.992Z,101301.38
2023-04-06T17:03:56.848Z,101304.47
2023-04-06T17:06:24.228Z,101302.78
2023-04-06T17:08:52.320Z,101298.00
2023-04-06T17:11:25.540Z,101302.06
2023-04-06T17:13:55.510Z,101303.75
2023-04-06T17:16:27.053Z,101311.13
2023-04-06T17:18:56.083Z,101310.78
2023-04-06T17:21:23.270Z,101300.06
2023-04-06T17:23:51.001Z,101305.16
2023-04-06T17:26:18.713Z,101306.50
2023-04-06T17:28:45.923Z,101307.69
2023-04-06T17:31:16.740Z,101312.63
2023-04-06T17:33:47.664Z,101314.66
2023-04-06T17:36:15.011Z,101314.69
2023-04-06T17:38:45.782Z,101316.72
2023-04-06T17:41:14.198Z,101312.06
2023-04-06T17:43:41.407Z,101321.91
2023-04-06T17:46:08.543Z,101326.13
2023-04-06T17:48:38.148Z,101326.66
2023-04-06T17:51:05.606Z,101328.00
2023-04-06T17:53:36.818Z,101333.91
2023-04-06T17:56:04.765Z,101341.03
2023-04-06T17:58:35.317Z,101340.63
2023-04-06T18:01:08.386Z,101336.47
2023-04-06T18:03:35.771Z,101340.34
2023-04-06T18:06:16.869Z,101337.78
2023-04-06T18:08:44.165Z,101340.31
2023-04-06T18:11:21.438Z,101342.13
2023-04-06T18:13:51.516Z,101343.19
2023-04-06T18:16:21.127Z,101349.53
2023-04-06T18:18:50.949Z,101350.91
2023-04-06T18:21:18.204Z,101360.00
2023-04-06T18:23:49.959Z,101351.59
2023-04-06T18:26:19.821Z,101360.59
2023-04-06T18:28:47.474Z,101359.00
2023-04-06T18:31:17.231Z,101356.03
2023-04-06T18:33:44.915Z,101364.84
2023-04-06T18:36:11.844Z,101366.41
2023-04-06T18:38:49.203Z,101363.84
2023-04-06T18:41:20.695Z,101366.66
2023-04-06T18:43:47.796Z,101369.16
2023-04-06T18:46:21.117Z,101364.13
2023-04-06T18:48:59.661Z,101369.84
2023-04-06T18:51:32.773Z,101373.03
2023-04-06T18:54:02.358Z,101368.00
2023-04-06T18:56:31.810Z,101367.41
2023-04-06T18:58:58.779Z,101373.09
2023-04-06T19:01:34.102Z,101377.72
2023-04-06T19:04:01.672Z,101377.53
2023-04-06T19:06:34.028Z,101376.09
2023-04-06T19:09:05.062Z,101381.31
2023-04-06T19:11:32.500Z,101369.56
2023-04-06T19:14:01.921Z,101374.50
2023-04-06T19:16:29.127Z,101377.09
2023-04-06T19:18:56.491Z,101378.97
2023-04-06T19:21:26.309Z,101384.97
2023-04-06T19:23:55.449Z,101379.84
2023-04-06T19:26:24.232Z,101389.69
2023-04-06T19:28:54.228Z,101384.13
2023-04-06T19:31:27.951Z,101393.34
2023-04-06T19:33:55.674Z,101385.84
2023-04-06T19:36:28.335Z,101389.06
2023-04-06T19:38:56.028Z,101382.88
2023-04-06T19:41:24.124Z,101391.03
2023-04-06T19:43:53.734Z,101388.97
2023-04-06T19:46:25.628Z,101393.81
2023-04-06T19:48:57.252Z,101386.88
2023-04-06T19:51:24.264Z,101391.94
2023-04-06T19:53:51.370Z,101399.22
2023-04-06T19:56:18.379Z,101395.59
2023-04-06T19:58:47.330Z,101399.59
2023-04-06T20:01:19.795Z,101397.03
2023-04-06T20:03:47.118Z,101398.00
2023-04-06T20:06:14.247Z,101390.16
2023-04-06T20:08:41.501Z,101392.53
2023-04-06T20:11:11.159Z,101396.38
2023-04-06T20:13:38.493Z,101393.81
2023-04-06T20:16:08.223Z,101399.16
2023-04-06T20:18:37.596Z,101395.91
2023-04-06T20:21:07.757Z,101395.06
2023-04-06T20:23:37.643Z,101388.81
2023-04-06T20:26:08.629Z,101392.78
2023-04-06T20:28:35.777Z,101399.47
2023-04-06T20:31:02.776Z,101401.34
2023-04-06T20:33:29.875Z,101392.81
2023-04-06T20:36:01.409Z,101394.81
2023-04-06T20:40:59.764Z,101391.06
2023-04-06T20:43:28.933Z,101393.66
2023-04-06T20:45:57.805Z,101392.81
2023-04-06T20:48:26.046Z,101388.81
2023-04-06T20:50:53.129Z,101395.34
2023-04-06T20:53:20.961Z,101394.22
2023-04-06T20:55:50.363Z,101395.91
2023-04-06T20:58:20.701Z,101386.78
2023-04-06T21:00:50.812Z,101396.22
2023-04-06T21:03:18.259Z,101386.78
2023-04-06T21:05:54.397Z,101391.66
2023-04-06T21:08:21.553Z,101397.63
2023-04-06T21:10:48.496Z,101390.50
2023-04-06T21:13:17.880Z,101390.03
2023-04-06T21:15:44.942Z,101395.72
2023-04-06T21:18:12.449Z,101385.91
2023-04-06T21:20:40.083Z,101390.56
2023-04-06T21:23:09.435Z,101387.84
2023-04-06T21:25:39.497Z,101380.63
2023-04-06T21:28:09.085Z,101382.44
2023-04-06T21:30:39.909Z,101377.94
2023-04-06T21:33:09.576Z,101385.91
2023-04-06T21:35:42.785Z,101386.47
2023-04-06T21:38:10.458Z,101380.91
2023-04-06T21:40:40.066Z,101384.19
2023-04-06T21:43:07.277Z,101387.06
2023-04-06T21:45:34.269Z,101386.47
2023-04-06T21:48:04.351Z,101384.75
2023-04-06T21:50:33.897Z,101373.31
2023-04-06T21:53:03.146Z,101381.16
2023-04-06T21:55:30.063Z,101383.00
2023-04-06T21:57:57.237Z,101385.00
2023-04-06T22:00:27.369Z,101379.31
2023-04-06T22:02:58.987Z,101380.75
2023-04-06T22:05:26.318Z,101383.31
2023-04-06T22:07:57.254Z,101385.88
2023-04-06T22:10:29.592Z,101376.22
2023-04-06T22:12:58.978Z,101376.22
2023-04-06T22:15:26.743Z,101379.50
2023-04-06T22:17:53.847Z,101375.28
2023-04-06T22:20:21.093Z,101381.72
2023-04-06T22:22:50.792Z,101384.28
2023-04-06T22:25:20.192Z,101378.28
2023-04-06T22:27:47.082Z,101384.56
2023-04-06T22:30:18.622Z,101385.16
2023-04-06T22:32:48.030Z,101379.44
2023-04-06T22:35:15.370Z,101384.75
2023-04-06T22:37:43.733Z,101386.47
2023-04-06T22:40:12.204Z,101380.34
2023-04-06T22:42:39.432Z,101376.25
2023-04-06T22:45:07.170Z,101384.31
2023-04-06T22:47:34.332Z,101383.88
2023-04-06T22:50:01.466Z,101385.53
2023-04-06T22:52:28.844Z,101382.66
2023-04-06T22:54:58.084Z,101380.69
2023-04-06T22:57:25.469Z,101385.69
2023-04-06T22:59:52.777Z,101381.28
2023-04-06T23:02:19.912Z,101391.63
2023-04-06T23:04:49.455Z,101387.19
2023-04-06T23:07:16.577Z,101391.78
2023-04-06T23:09:48.151Z,101385.75
2023-04-06T23:12:15.591Z,101389.72
2023-04-06T23:14:45.057Z,101393.94
2023-04-06T23:17:12.705Z,101398.28
2023-04-06T23:19:39.955Z,101397.94
2023-04-06T23:22:07.007Z,101402.34
2023-04-06T23:24:34.077Z,101395.13
2023-04-06T23:27:03.178Z,101395.44
2023-04-06T23:29:30.439Z,101401.03
2023-04-06T23:32:01.123Z,101394.78
2023-04-06T23:34:30.204Z,101396.41
2023-04-06T23:37:03.005Z,101397.78
2023-04-06T23:39:33.152Z,101397.03
2023-04-06T23:42:01.541Z,101406.38
2023-04-06T23:44:31.990Z,101400.56
2023-04-06T23:46:59.110Z,101399.91
2023-04-06T23:49:26.178Z,101398.28
2023-04-06T23:51:53.201Z,101401.41
2023-04-06T23:54:22.633Z,101390.81
2023-04-06T23:56:52.127Z,101394.69
2023-04-06T23:59:19.252Z,101392.00
